Cape Bruny, Tasmania

4:54 AM AEST on May 06, 2015 (GMT +1000)
Huon Valley | | Change Station
CLOSE
Current Station
Personal Weather Station
Location: Garden Island Creek, TASMANIA
Elevation: 98 ft
Nearby Weather Stations

Elev 98 ft 43.24 °S, 147.15 °E | Updated 18 seconds ago

Partly Cloudy
Partly Cloudy
47.5 °F
Feels Like 45 °F
N
6.0
Wind Variable Wind from SSW
Gusts 16.0 mph

Today
High -- | Low -- °F
--% Chance of Precip.
Yesterday
High -- | Low -- °F
Precip. -- in
7:07 AM 5:07 PM
Full, 97% visible
Pressure 29.33 in
Visibility 6.2 miles
Clouds Few 4000 ft
Windchill 45 °F
Dew Point 38 °F
Humidity 71%
Rainfall 0.02 in
Snow Depth Not available.
UV 0 out of 12
Pollen Not available.
Air Quality Not available.
Flu Activity Not available.
SPECI YMHB 051830Z 30019G32KT 280V340 9999 FEW040 10/00 Q0993

More Conditions Fewer Conditions

Pressure 29.33 in
Visibility 6.2 miles
Clouds Few 4000 ft
Windchill 45 °F
Dew Point 38 °F
Humidity 71%
Rainfall 0.02 in
Snow Depth Not available.
UV 0 out of 12
Pollen Not available.
Air Quality Not available.
Flu Activity Not available.
SPECI YMHB 051830Z 30019G32KT 280V340 9999 FEW040 10/00 Q0993

More Conditions Fewer Conditions

10-Day Weather Forecast

Almanac

Astronomy

May. 06, 2015 Rise Set
Actual Time
Civil Twilight
Nautical Twilight
Astronomical Twilight
Moon
Length of Visible Light
Length of Day
Tomorrow will be .
, % of the Moon is Illuminated

Today's Extremes

Country Highs Country Lows

Community

WunderPhotos

Upload Photos

1,818,953 photos uploaded!

WunderBlogs® & News

Nearby

Air Quality

  Air Quality AQ Index Pollutant
Not available.

Snow Depth

Station Depth Elevation

Earthquake Activity

City Distance Mag. Time & Date
Minimum magnitude displayed is 2.5.

Coastal Water Temperatures

Place Temperature

Stations

Nearby Weather Stations

Station Location Temp. Windchill Dew Point Humidity Wind Precip. Elev Updated Type